createdAt,value
2019-03-12T00:01:12.440Z,90.90
2019-03-12T00:03:42.980Z,90.90
2019-03-12T00:06:14.959Z,91.10
2019-03-12T00:08:45.610Z,91.10
2019-03-12T00:11:16.076Z,91.20
2019-03-12T00:13:46.581Z,91.20
2019-03-12T00:16:17.045Z,91.40
2019-03-12T00:18:47.556Z,91.60
2019-03-12T00:21:18.064Z,91.70
2019-03-12T00:23:48.621Z,91.80
2019-03-12T00:26:20.664Z,91.90
2019-03-12T00:28:52.414Z,92.00
2019-03-12T00:31:24.177Z,92.10
2019-03-12T00:33:54.650Z,92.20
2019-03-12T00:36:25.082Z,92.10
2019-03-12T00:38:55.565Z,92.10
2019-03-12T00:41:26.055Z,91.90
2019-03-12T00:43:56.544Z,91.70
2019-03-12T00:46:27.275Z,91.30
2019-03-12T00:48:57.741Z,91.40
2019-03-12T00:51:29.730Z,91.40
2019-03-12T00:54:00.206Z,90.90
2019-03-12T00:56:30.592Z,91.00
2019-03-12T00:59:01.447Z,91.10
2019-03-12T01:01:32.870Z,90.70
2019-03-12T01:04:03.346Z,90.60
2019-03-12T01:06:33.821Z,90.10
2019-03-12T01:09:05.821Z,90.10
2019-03-12T01:11:36.313Z,89.20
2019-03-12T01:14:06.799Z,88.50
2019-03-12T01:16:37.307Z,89.00
2019-03-12T01:19:07.721Z,88.40
2019-03-12T01:21:38.179Z,87.80
2019-03-12T01:24:09.070Z,87.50
2019-03-12T01:26:39.728Z,87.50
2019-03-12T01:29:10.336Z,87.90
2019-03-12T01:31:40.758Z,87.10
2019-03-12T01:34:11.523Z,87.40
2019-03-12T01:36:41.963Z,87.40
2019-03-12T01:39:12.566Z,87.60
2019-03-12T01:42:00.688Z,87.10
2019-03-12T01:44:31.186Z,87.10
2019-03-12T01:47:01.699Z,87.40
2019-03-12T01:49:32.177Z,87.10
2019-03-12T01:52:02.644Z,87.50
2019-03-12T01:54:33.060Z,87.10
2019-03-12T01:57:03.497Z,87.10
2019-03-12T01:59:33.934Z,87.10
2019-03-12T02:02:04.454Z,87.10
2019-03-12T02:04:34.933Z,87.30
2019-03-12T02:07:05.473Z,87.30
2019-03-12T02:09:35.872Z,87.20
2019-03-12T02:12:06.411Z,87.80
2019-03-12T02:14:36.822Z,87.10
2019-03-12T02:17:07.381Z,87.60
2019-03-12T02:19:37.887Z,87.20
2019-03-12T02:22:08.324Z,87.40
2019-03-12T02:24:51.736Z,87.10
2019-03-12T02:27:11.519Z,87.50
2019-03-12T02:29:41.889Z,88.00
2019-03-12T02:32:12.302Z,88.00
2019-03-12T02:34:42.762Z,87.90
2019-03-12T02:37:13.181Z,87.90
2019-03-12T02:39:43.650Z,88.40
2019-03-12T02:42:14.028Z,87.50
2019-03-12T02:44:44.515Z,87.40
2019-03-12T02:47:14.881Z,87.20
2019-03-12T02:49:46.355Z,87.40
2019-03-12T02:52:17.235Z,88.00
2019-03-12T02:54:47.734Z,87.40
2019-03-12T02:57:18.199Z,87.50
2019-03-12T02:59:48.663Z,87.50
2019-03-12T03:02:19.051Z,87.50
2019-03-12T03:04:53.909Z,87.40
2019-03-12T03:07:23.209Z,87.60
2019-03-12T03:09:53.683Z,87.60
2019-03-12T03:12:24.070Z,88.30
2019-03-12T03:14:54.510Z,88.20
2019-03-12T03:17:24.896Z,87.50
2019-03-12T03:19:55.296Z,87.90
2019-03-12T03:22:25.723Z,88.80
2019-03-12T03:24:56.299Z,88.20
2019-03-12T03:27:29.225Z,88.30
2019-03-12T03:29:58.814Z,88.50
2019-03-12T03:32:29.296Z,87.80
2019-03-12T03:34:59.711Z,88.00
2019-03-12T03:37:30.221Z,87.90
2019-03-12T03:40:00.726Z,87.50
2019-03-12T03:42:31.258Z,88.00
2019-03-12T03:45:01.633Z,87.50
2019-03-12T03:47:32.070Z,88.30
2019-03-12T03:50:02.523Z,87.60
2019-03-12T03:52:33.051Z,87.60
2019-03-12T03:55:03.640Z,87.90
2019-03-12T03:57:34.071Z,88.00
2019-03-12T04:00:07.258Z,88.50
2019-03-12T04:02:37.766Z,88.00
2019-03-12T04:05:08.730Z,88.10
2019-03-12T04:07:41.337Z,88.10
2019-03-12T04:10:13.394Z,88.40
2019-03-12T04:12:44.924Z,88.40
2019-03-12T04:15:18.012Z,88.50
2019-03-12T04:17:48.582Z,87.90
2019-03-12T04:20:19.549Z,88.90
2019-03-12T04:22:49.970Z,89.30
2019-03-12T04:25:20.595Z,89.10
2019-03-12T04:27:51.162Z,89.40
2019-03-12T04:30:23.269Z,88.70
2019-03-12T04:32:53.803Z,88.90
2019-03-12T04:35:27.268Z,89.10
2019-03-12T04:38:00.538Z,88.80
2019-03-12T04:40:30.980Z,89.40
2019-03-12T04:43:03.356Z,89.10
2019-03-12T04:45:33.458Z,89.60
2019-03-12T04:48:04.502Z,89.60
2019-03-12T04:50:34.949Z,89.10
2019-03-12T04:53:05.301Z,89.00
2019-03-12T04:55:35.754Z,89.20
2019-03-12T04:58:06.245Z,88.80
2019-03-12T05:04:27.381Z,89.10
2019-03-12T05:09:49.044Z,90.00
2019-03-12T05:12:20.561Z,90.30
2019-03-12T05:14:51.014Z,90.40
2019-03-12T05:17:21.502Z,90.40
2019-03-12T05:19:52.521Z,90.70
2019-03-12T05:22:23.004Z,90.90
2019-03-12T05:24:55.191Z,91.40
2019-03-12T05:27:26.003Z,91.80
2019-03-12T05:29:59.192Z,92.40
2019-03-12T05:32:32.003Z,92.40
2019-03-12T05:35:02.713Z,92.90
2019-03-12T05:37:37.936Z,92.90
2019-03-12T05:40:18.560Z,92.80
2019-03-12T05:45:48.393Z,92.80
2019-03-12T05:48:29.435Z,92.70
2019-03-12T05:51:08.031Z,92.70
2019-03-12T05:53:47.824Z,92.60
2019-03-12T05:56:19.819Z,92.60
2019-03-12T05:58:54.872Z,92.70
2019-03-12T06:01:25.401Z,92.70
2019-03-12T06:03:56.575Z,92.50
2019-03-12T06:09:34.403Z,92.20
2019-03-12T06:12:10.626Z,91.80
2019-03-12T06:14:41.332Z,91.70
2019-03-12T06:20:05.407Z,91.40
2019-03-12T06:22:35.900Z,91.20
2019-03-12T06:25:06.768Z,91.20
2019-03-12T06:27:37.348Z,91.00
2019-03-12T06:30:26.015Z,90.50
2019-03-12T06:33:03.908Z,90.70
2019-03-12T06:35:38.684Z,90.60
2019-03-12T06:38:23.797Z,90.10
2019-03-12T06:41:20.799Z,90.30
2019-03-12T06:43:54.535Z,89.60
2019-03-12T06:46:26.645Z,89.20
2019-03-12T06:48:59.624Z,88.20
2019-03-12T06:51:31.710Z,86.80
2019-03-12T06:54:07.186Z,86.00
2019-03-12T06:56:40.018Z,84.80
2019-03-12T06:59:23.225Z,83.50
2019-03-12T07:02:08.798Z,84.40
2019-03-12T07:04:43.640Z,83.60
2019-03-12T07:07:21.774Z,82.60
2019-03-12T07:10:09.426Z,83.60
2019-03-12T07:12:41.509Z,82.90
2019-03-12T07:15:17.556Z,83.30
2019-03-12T07:17:52.463Z,82.80
2019-03-12T07:20:27.248Z,81.40
2019-03-12T07:22:59.369Z,80.10
2019-03-12T07:25:37.172Z,79.80
2019-03-12T07:28:20.917Z,79.10
2019-03-12T07:30:52.982Z,78.00
2019-03-12T07:33:37.210Z,76.60
2019-03-12T07:36:25.255Z,78.10
2019-03-12T07:39:08.333Z,79.00
2019-03-12T07:41:45.643Z,78.50
2019-03-12T07:44:19.675Z,78.10
2019-03-12T07:46:51.685Z,76.30
2019-03-12T07:49:26.518Z,74.80
2019-03-12T07:52:08.887Z,75.20
2019-03-12T07:54:56.039Z,73.90
2019-03-12T07:57:29.076Z,74.60
2019-03-12T08:00:17.493Z,76.20
2019-03-12T08:02:53.659Z,75.40
2019-03-12T08:05:32.032Z,73.20
2019-03-12T08:08:20.315Z,73.60
2019-03-12T08:10:52.418Z,71.30
2019-03-12T08:13:27.381Z,70.50
2019-03-12T08:16:03.714Z,70.80
2019-03-12T08:18:35.815Z,69.50
2019-03-12T08:21:22.325Z,67.60
2019-03-12T08:23:53.102Z,66.00
2019-03-12T08:26:45.209Z,64.70
2019-03-12T08:29:19.992Z,64.60
2019-03-12T08:32:03.534Z,66.70
2019-03-12T08:34:38.169Z,65.70
2019-03-12T08:37:15.999Z,62.70
2019-03-12T08:39:48.022Z,61.80
2019-03-12T08:42:23.114Z,62.40
2019-03-12T08:44:55.293Z,62.60
2019-03-12T08:47:40.072Z,62.00
2019-03-12T08:50:24.191Z,61.00
2019-03-12T08:53:05.121Z,62.90
2019-03-12T08:55:40.108Z,63.00
2019-03-12T08:58:12.128Z,62.90
2019-03-12T09:00:59.209Z,62.00
2019-03-12T09:03:48.722Z,58.50
2019-03-12T09:06:20.784Z,58.20
2019-03-12T09:09:07.657Z,62.00
2019-03-12T09:11:39.609Z,60.40
2019-03-12T09:14:18.487Z,59.20
2019-03-12T09:16:50.407Z,57.70
2019-03-12T09:19:27.946Z,57.00
2019-03-12T09:22:16.090Z,57.00
2019-03-12T09:24:48.161Z,58.40
2019-03-12T09:27:27.033Z,60.60
2019-03-12T09:30:04.539Z,59.90
2019-03-12T09:32:44.493Z,61.00
2019-03-12T09:35:25.455Z,57.10
2019-03-12T09:38:00.079Z,57.50
2019-03-12T09:40:35.332Z,60.50
2019-03-12T09:43:14.729Z,62.40
2019-03-12T09:45:46.791Z,62.00
2019-03-12T09:48:18.748Z,60.90
2019-03-12T09:50:53.241Z,62.20
2019-03-12T09:53:28.195Z,58.30
2019-03-12T09:56:00.224Z,57.60
2019-03-12T09:58:41.266Z,56.70
2019-03-12T10:01:29.211Z,57.60
2019-03-12T10:04:06.944Z,58.60
2019-03-12T10:06:55.219Z,58.70
2019-03-12T10:09:36.353Z,60.50
2019-03-12T10:12:08.354Z,60.50
2019-03-12T10:14:52.100Z,59.40
2019-03-12T10:17:38.995Z,57.50
2019-03-12T10:20:14.062Z,56.40
2019-03-12T10:22:46.371Z,56.60
2019-03-12T10:25:32.521Z,55.50
2019-03-12T10:28:07.502Z,52.80
2019-03-12T10:30:39.506Z,54.50
2019-03-12T10:33:11.540Z,53.00
2019-03-12T10:36:00.866Z,49.30
2019-03-12T10:39:14.732Z,51.80
2019-03-12T10:42:03.028Z,52.70
2019-03-12T10:44:35.063Z,50.90
2019-03-12T10:47:20.329Z,50.60
2019-03-12T10:49:51.073Z,52.00
2019-03-12T10:52:21.431Z,50.10
2019-03-12T10:54:51.845Z,51.20
2019-03-12T10:57:22.274Z,49.60
2019-03-12T10:59:52.659Z,47.50
2019-03-12T11:02:23.090Z,47.10
2019-03-12T11:04:54.935Z,46.80
2019-03-12T11:07:25.614Z,43.70
2019-03-12T11:09:56.503Z,43.80
2019-03-12T11:12:26.977Z,45.90
2019-03-12T11:14:57.373Z,49.40
2019-03-12T11:17:27.786Z,49.40
2019-03-12T11:19:58.288Z,48.40
2019-03-12T11:22:28.727Z,50.20
2019-03-12T11:24:59.237Z,49.30
2019-03-12T11:27:29.737Z,49.20
2019-03-12T11:30:00.407Z,50.40
2019-03-12T11:32:31.061Z,49.50
2019-03-12T11:35:01.463Z,49.10
2019-03-12T11:37:31.896Z,50.10
2019-03-12T11:40:02.618Z,48.10
2019-03-12T11:42:33.184Z,49.60
2019-03-12T11:45:13.437Z,52.50
2019-03-12T11:47:36.801Z,54.10
2019-03-12T11:50:10.249Z,54.90
2019-03-12T11:52:52.654Z,48.70
2019-03-12T11:55:15.314Z,51.40
2019-03-12T11:57:45.924Z,53.20
2019-03-12T12:00:20.657Z,53.40
2019-03-12T12:03:00.080Z,54.90
2019-03-12T12:05:23.411Z,55.90
2019-03-12T12:07:53.795Z,54.20
2019-03-12T12:10:24.369Z,54.40
2019-03-12T12:12:59.790Z,54.10
2019-03-12T12:15:30.514Z,54.80
2019-03-12T12:18:00.951Z,54.00
2019-03-12T12:20:31.355Z,53.70
2019-03-12T12:23:01.765Z,53.50
2019-03-12T12:25:32.272Z,48.80
2019-03-12T12:28:02.642Z,49.50
2019-03-12T12:30:34.201Z,49.90
2019-03-12T12:33:04.791Z,51.20
2019-03-12T12:35:35.169Z,51.60
2019-03-12T12:38:05.799Z,53.20
2019-03-12T12:40:37.782Z,52.90
2019-03-12T12:43:08.157Z,52.00
2019-03-12T12:45:41.203Z,52.20
2019-03-12T12:48:11.535Z,51.40
2019-03-12T12:50:41.902Z,52.80
2019-03-12T12:53:15.242Z,52.90
2019-03-12T12:55:47.249Z,51.30
2019-03-12T12:58:17.676Z,51.80
2019-03-12T13:00:48.033Z,51.60
2019-03-12T13:03:18.467Z,53.00
2019-03-12T13:05:51.775Z,54.30
2019-03-12T13:08:22.259Z,54.30
2019-03-12T13:11:00.087Z,55.60
2019-03-12T13:13:33.162Z,56.20
2019-03-12T13:16:03.571Z,56.90
2019-03-12T13:18:33.922Z,55.40
2019-03-12T13:21:06.391Z,55.70
2019-03-12T13:23:36.818Z,55.50
2019-03-12T13:26:08.991Z,55.20
2019-03-12T13:28:39.955Z,54.80
2019-03-12T13:31:10.381Z,55.30
2019-03-12T13:33:40.782Z,55.40
2019-03-12T13:36:12.791Z,56.80
2019-03-12T13:38:46.134Z,56.80
2019-03-12T13:41:15.264Z,57.00
2019-03-12T13:43:47.363Z,57.10
2019-03-12T13:46:17.913Z,57.90
2019-03-12T13:48:48.286Z,57.70
2019-03-12T13:51:18.753Z,57.70
2019-03-12T13:53:49.335Z,57.50
2019-03-12T13:56:19.917Z,56.90
2019-03-12T13:58:50.354Z,56.60
2019-03-12T14:01:20.759Z,57.70
2019-03-12T14:03:51.288Z,56.10
2019-03-12T14:06:21.752Z,56.50
2019-03-12T14:08:52.179Z,56.10
2019-03-12T14:11:22.604Z,56.70
2019-03-12T14:13:53.031Z,55.10
2019-03-12T14:16:23.543Z,56.10
2019-03-12T14:18:53.975Z,55.70
2019-03-12T14:21:24.443Z,55.30
2019-03-12T14:24:00.472Z,55.10
2019-03-12T14:26:31.343Z,55.50
2019-03-12T14:29:01.763Z,55.90
2019-03-12T14:31:32.194Z,56.80
2019-03-12T14:34:02.671Z,57.20
2019-03-12T14:36:33.648Z,57.30
2019-03-12T14:39:08.693Z,58.20
2019-03-12T14:41:41.655Z,58.20
2019-03-12T14:44:12.295Z,57.50
2019-03-12T14:46:42.656Z,57.80
2019-03-12T14:49:13.135Z,58.20
2019-03-12T14:51:46.532Z,58.30
2019-03-12T14:54:16.934Z,58.90
2019-03-12T14:56:47.382Z,59.90
2019-03-12T14:59:17.801Z,60.00
2019-03-12T15:01:48.218Z,61.00
2019-03-12T15:04:20.226Z,61.40
2019-03-12T15:06:52.020Z,61.80
2019-03-12T15:09:22.400Z,61.40
2019-03-12T15:11:52.897Z,62.20
2019-03-12T15:14:23.352Z,62.00
2019-03-12T15:16:53.789Z,61.60
2019-03-12T15:19:24.242Z,61.60
2019-03-12T15:21:57.547Z,62.60
2019-03-12T15:24:31.130Z,63.60
2019-03-12T15:27:03.076Z,64.30
2019-03-12T15:29:33.552Z,65.60
2019-03-12T15:32:04.733Z,65.40
2019-03-12T15:34:35.351Z,65.90
2019-03-12T15:37:05.776Z,66.10
2019-03-12T15:39:36.205Z,66.90
2019-03-12T15:42:09.399Z,67.60
2019-03-12T15:44:40.063Z,67.50
2019-03-12T15:47:10.578Z,67.30
2019-03-12T15:49:42.954Z,67.80
2019-03-12T15:52:13.181Z,67.00
2019-03-12T15:54:45.701Z,67.20
2019-03-12T15:57:16.328Z,67.00
2019-03-12T15:59:51.838Z,67.50
2019-03-12T16:02:27.531Z,67.00
2019-03-12T16:08:02.220Z,66.60
2019-03-12T16:10:38.022Z,67.30
2019-03-12T16:13:10.049Z,66.50
2019-03-12T16:15:41.805Z,67.10
2019-03-12T16:18:15.393Z,68.00
2019-03-12T16:20:49.026Z,68.30
2019-03-12T16:23:21.595Z,68.40
2019-03-12T16:25:51.965Z,68.80
2019-03-12T16:28:24.896Z,69.20
2019-03-12T16:30:55.351Z,68.30
2019-03-12T16:33:26.999Z,67.90
2019-03-12T16:36:02.072Z,68.10
2019-03-12T16:38:36.055Z,68.60
2019-03-12T16:41:06.343Z,68.60
2019-03-12T16:43:36.735Z,69.00
2019-03-12T16:46:07.330Z,68.80
2019-03-12T16:48:39.432Z,69.00
2019-03-12T16:51:23.729Z,69.20
2019-03-12T16:54:13.614Z,68.70
2019-03-12T16:56:55.129Z,69.00
2019-03-12T16:59:25.625Z,69.20
2019-03-12T17:02:14.803Z,69.10
2019-03-12T17:04:46.942Z,69.00
2019-03-12T17:07:18.972Z,68.40
2019-03-12T17:09:51.373Z,68.60
2019-03-12T17:12:30.743Z,68.70
2019-03-12T17:15:06.570Z,69.20
2019-03-12T17:17:57.422Z,69.00
2019-03-12T17:20:28.898Z,69.20
2019-03-12T17:23:01.127Z,69.20
2019-03-12T17:25:34.624Z,69.40
2019-03-12T17:28:10.526Z,69.70
2019-03-12T17:30:41.188Z,69.20
2019-03-12T17:33:11.912Z,70.00
2019-03-12T17:35:43.145Z,70.20
2019-03-12T17:38:15.575Z,70.70
2019-03-12T17:40:56.043Z,70.70
2019-03-12T17:46:55.657Z,73.50
2019-03-12T17:49:25.813Z,73.80
2019-03-12T17:51:56.202Z,74.60
2019-03-12T17:54:26.594Z,74.80
2019-03-12T17:57:05.311Z,74.90
2019-03-12T17:59:37.451Z,75.80
2019-03-12T18:02:07.996Z,77.30
2019-03-12T18:04:39.098Z,77.70
2019-03-12T18:07:23.558Z,79.00
2019-03-12T18:10:01.500Z,78.40
2019-03-12T18:12:43.498Z,78.30
2019-03-12T18:17:28.539Z,79.30
2019-03-12T18:18:36.240Z,80.00
2019-03-12T18:21:10.235Z,80.30
2019-03-12T18:23:40.775Z,80.50
2019-03-12T18:26:11.291Z,80.40
2019-03-12T18:28:41.865Z,81.70
2019-03-12T18:31:12.585Z,82.30
2019-03-12T18:33:43.180Z,81.80
2019-03-12T18:36:36.081Z,81.60
2019-03-12T18:39:12.342Z,81.50
2019-03-12T18:41:45.863Z,82.00
2019-03-12T18:44:16.548Z,82.30
2019-03-12T18:46:47.167Z,82.10
2019-03-12T18:49:17.797Z,83.60
2019-03-12T18:51:48.403Z,83.90
2019-03-12T18:54:18.989Z,83.20
2019-03-12T18:56:49.449Z,83.00
2019-03-12T18:59:20.193Z,84.00
2019-03-12T19:01:50.805Z,84.50
2019-03-12T19:04:21.290Z,85.30
2019-03-12T19:06:53.359Z,87.80
2019-03-12T19:09:25.499Z,86.60
2019-03-12T19:11:56.445Z,86.20
2019-03-12T19:14:27.035Z,87.10
2019-03-12T19:17:01.973Z,88.40
2019-03-12T19:19:32.887Z,86.00
2019-03-12T19:22:04.026Z,85.20
2019-03-12T19:24:35.461Z,86.40
2019-03-12T19:27:06.522Z,86.90
2019-03-12T19:29:37.852Z,88.20
2019-03-12T19:35:34.853Z,89.30
2019-03-12T19:38:07.406Z,89.00
2019-03-12T19:40:41.070Z,88.40
2019-03-12T19:43:13.569Z,88.30
2019-03-12T19:45:45.352Z,87.50
2019-03-12T19:48:16.264Z,87.20
2019-03-12T19:50:47.111Z,87.60
2019-03-12T19:53:18.307Z,87.20
2019-03-12T19:56:02.542Z,86.80
2019-03-12T19:58:33.528Z,86.80
2019-03-12T20:01:05.060Z,86.20
2019-03-12T20:03:43.283Z,86.80
2019-03-12T20:06:13.652Z,87.90
2019-03-12T20:08:54.189Z,88.40
2019-03-12T20:15:18.826Z,89.40
2019-03-12T20:18:17.427Z,88.30
2019-03-12T20:21:24.064Z,90.30
2019-03-12T20:25:12.405Z,90.10
2019-03-12T20:27:15.978Z,90.60
2019-03-12T20:33:43.020Z,90.30
2019-03-12T20:36:33.219Z,90.20
2019-03-12T20:39:30.779Z,90.40
2019-03-12T20:42:19.483Z,90.50
2019-03-12T20:45:14.091Z,90.10
2019-03-12T20:47:56.454Z,89.10
2019-03-12T20:50:46.450Z,89.60
2019-03-12T20:53:45.688Z,90.50
2019-03-12T20:56:53.550Z,90.70
2019-03-12T21:00:00.388Z,90.40
2019-03-12T21:02:50.497Z,89.40
2019-03-12T21:05:43.637Z,90.10
2019-03-12T21:08:49.995Z,89.80
2019-03-12T21:11:37.776Z,90.20
2019-03-12T21:14:27.520Z,89.70
2019-03-12T21:17:12.876Z,89.30
2019-03-12T21:20:02.651Z,89.90
2019-03-12T21:22:45.098Z,90.00
2019-03-12T21:25:27.312Z,90.00
2019-03-12T21:28:03.164Z,90.30
2019-03-12T21:30:33.631Z,90.50
2019-03-12T21:33:14.871Z,90.70
2019-03-12T21:35:36.119Z,90.90
2019-03-12T21:38:06.777Z,90.90
2019-03-12T21:40:37.447Z,90.80
2019-03-12T21:43:07.993Z,91.10
2019-03-12T21:45:38.489Z,91.40
2019-03-12T21:48:08.886Z,91.40
2019-03-12T21:50:39.259Z,91.90
2019-03-12T21:53:09.782Z,91.80
2019-03-12T21:55:40.171Z,91.60
2019-03-12T21:58:10.655Z,91.10
2019-03-12T22:00:41.161Z,90.40
2019-03-12T22:03:16.191Z,90.80
2019-03-12T22:05:45.116Z,92.10
2019-03-12T22:08:15.611Z,91.80
2019-03-12T22:10:45.988Z,91.70
2019-03-12T22:13:16.548Z,90.90
2019-03-12T22:15:47.021Z,90.30
2019-03-12T22:18:17.416Z,90.30
2019-03-12T22:20:51.063Z,88.20
2019-03-12T22:23:24.210Z,87.20
2019-03-12T22:25:56.007Z,86.40
2019-03-12T22:28:30.331Z,85.40
2019-03-12T22:31:03.066Z,84.60
2019-03-12T22:33:33.706Z,84.00
2019-03-12T22:36:04.095Z,83.90
2019-03-12T22:38:34.491Z,83.60
2019-03-12T22:41:04.931Z,83.60
2019-03-12T22:43:35.315Z,83.60
2019-03-12T22:46:06.285Z,83.80
2019-03-12T22:48:36.715Z,83.40
2019-03-12T22:51:07.218Z,83.40
2019-03-12T22:53:40.348Z,83.70
2019-03-12T22:56:10.822Z,84.00
2019-03-12T22:58:41.265Z,83.90
2019-03-12T23:01:11.726Z,84.00
2019-03-12T23:03:42.254Z,83.80
2019-03-12T23:06:12.671Z,83.80
2019-03-12T23:08:43.181Z,83.70
2019-03-12T23:11:13.697Z,83.90
2019-03-12T23:13:44.230Z,83.40
2019-03-12T23:16:14.600Z,83.60
2019-03-12T23:18:45.089Z,83.30
2019-03-12T23:21:16.819Z,83.60
2019-03-12T23:23:47.309Z,84.00
2019-03-12T23:26:17.736Z,84.10
2019-03-12T23:28:48.147Z,84.30
2019-03-12T23:31:18.591Z,84.30
2019-03-12T23:33:48.946Z,84.80
2019-03-12T23:36:19.417Z,85.20
2019-03-12T23:38:50.011Z,85.60
2019-03-12T23:41:20.486Z,85.70
2019-03-12T23:43:50.851Z,85.60
2019-03-12T23:46:21.297Z,85.40
2019-03-12T23:48:51.740Z,85.40
2019-03-12T23:51:22.175Z,85.40
2019-03-12T23:53:52.613Z,85.40
2019-03-12T23:56:23.032Z,85.20
2019-03-12T23:58:53.434Z,85.40
